Time;durP1;ratioP1;P1;durP2;ratioP2;P2;SDS_P1;SDS_P2;PMS_P1;PMS_P2;Temp;Humidity;BMP_temperature;BMP_pressure;BME280_temperature;BME280_humidity;BME280_pressure;Samples;Min_cycle;Max_cycle;Signal;HPM_P1;HPM_P2
2022/01/28 00:01:27;;;;;;;14.52;2.38;;;8.70;68.00;;;;;;6154282;23;20196;-55
2022/01/28 00:04:01;;;;;;;10.82;2.58;;;8.60;67.90;;;;;;6144179;23;20005;-57
2022/01/28 00:06:27;;;;;;;19.33;3.20;;;8.60;68.60;;;;;;6143967;23;20014;-56
2022/01/28 00:08:53;;;;;;;17.92;3.00;;;8.60;67.70;;;;;;6144536;23;20443;-56
2022/01/28 00:11:19;;;;;;;14.88;2.75;;;8.60;67.80;;;;;;6143345;23;20334;-56
2022/01/28 00:13:52;;;;;;;17.17;2.75;;;8.50;67.90;;;;;;6140607;23;19997;-54
2022/01/28 00:16:46;;;;;;;13.93;2.92;;;8.50;67.90;;;;;;6152906;23;20013;-54
2022/01/28 00:38:28;;;;;;;19.92;3.30;;;8.30;68.60;;;;;;6155289;23;20025;-55
2022/01/28 00:40:54;;;;;;;15.18;3.13;;;8.40;68.70;;;;;;6145675;23;20010;-54
2022/01/28 00:43:20;;;;;;;18.48;3.25;;;8.40;68.60;;;;;;6142800;23;20009;-51
2022/01/28 00:45:47;;;;;;;12.52;2.55;;;8.30;68.60;;;;;;6145557;23;20427;-56
2022/01/28 00:48:13;;;;;;;13.60;3.22;;;8.40;68.60;;;;;;6144432;23;20469;-50
2022/01/28 00:50:42;;;;;;;19.13;3.95;;;8.30;68.60;;;;;;6145075;23;20442;-55
2022/01/28 00:53:11;;;;;;;16.92;4.13;;;8.30;68.60;;;;;;6144741;23;20028;-54
2022/01/28 00:55:38;;;;;;;20.88;3.70;;;8.30;68.70;;;;;;6145921;23;20001;-53
2022/01/28 00:58:04;;;;;;;17.33;4.05;;;8.40;68.90;;;;;;6142830;23;20598;-54
2022/01/28 01:00:31;;;;;;;25.95;3.78;;;8.40;68.90;;;;;;6142438;23;20001;-53
2022/01/28 01:02:57;;;;;;;23.35;3.00;;;8.40;69.00;;;;;;6144259;23;20001;-53
2022/01/28 01:05:23;;;;;;;25.23;3.65;;;8.40;68.90;;;;;;6145613;23;20005;-55
2022/01/28 01:07:50;;;;;;;20.00;2.95;;;8.40;68.90;;;;;;6145331;23;20024;-54
2022/01/28 01:10:16;;;;;;;30.15;3.13;;;8.40;68.80;;;;;;6146023;23;20006;-55
2022/01/28 01:12:45;;;;;;;20.85;3.50;;;8.40;68.40;;;;;;6143364;23;20009;-56
2022/01/28 01:15:18;;;;;;;18.23;3.30;;;8.40;68.60;;;;;;6144651;23;20331;-55
2022/01/28 01:18:01;;;;;;;23.27;3.15;;;8.40;68.70;;;;;;6146345;23;20017;-56
2022/01/28 01:23:11;;;;;;;23.13;3.28;;;8.40;68.60;;;;;;6153401;23;20471;-57
2022/01/28 01:25:48;;;;;;;26.57;4.13;;;8.40;68.20;;;;;;6143537;23;20021;-52
2022/01/28 01:28:18;;;;;;;28.27;3.03;;;8.40;67.80;;;;;;6152897;23;20244;-55
2022/01/28 01:30:45;;;;;;;24.58;2.95;;;8.40;68.00;;;;;;6144553;23;20005;-53
2022/01/28 01:33:11;;;;;;;22.52;3.22;;;8.40;68.20;;;;;;6142205;23;20334;-56
2022/01/28 01:35:39;;;;;;;21.42;3.20;;;8.40;68.00;;;;;;6144706;23;20423;-58
2022/01/28 01:38:07;;;;;;;27.77;3.28;;;8.40;67.50;;;;;;6145536;23;20033;-55
2022/01/28 01:40:42;;;;;;;18.85;3.20;;;8.30;67.30;;;;;;6144864;23;20009;-56
2022/01/28 01:43:19;;;;;;;16.27;2.88;;;8.30;67.60;;;;;;6143103;23;20006;-57
2022/01/28 01:53:41;;;;;;;24.67;4.05;;;8.30;67.30;;;;;;6142964;23;20025;-58
2022/01/28 01:56:07;;;;;;;16.02;3.33;;;8.30;67.40;;;;;;6144311;23;20007;-51
2022/01/28 01:58:35;;;;;;;19.83;3.40;;;8.30;67.30;;;;;;6142287;23;19998;-55
2022/01/28 02:01:02;;;;;;;22.58;3.75;;;8.30;67.00;;;;;;6145408;23;20002;-58
2022/01/28 02:03:29;;;;;;;14.40;3.00;;;8.30;67.10;;;;;;6144061;23;19998;-57
2022/01/28 02:05:57;;;;;;;17.55;3.72;;;8.30;67.10;;;;;;6145036;23;20062;-58
2022/01/28 02:08:25;;;;;;;18.08;2.97;;;8.30;66.80;;;;;;6145291;23;20313;-56
2022/01/28 02:10:56;;;;;;;24.02;3.30;;;8.30;66.90;;;;;;6144610;23;20013;-58
2022/01/28 02:13:26;;;;;;;22.00;3.85;;;8.30;67.00;;;;;;6143150;23;20008;-56
2022/01/28 02:15:57;;;;;;;24.38;5.00;;;8.20;66.70;;;;;;6142186;23;20008;-58
2022/01/28 02:18:24;;;;;;;25.42;4.32;;;8.20;66.80;;;;;;6153737;23;20458;-56
2022/01/28 02:20:54;;;;;;;18.40;3.00;;;8.20;66.80;;;;;;6145231;23;20008;-56
2022/01/28 02:23:22;;;;;;;19.92;3.00;;;8.20;66.70;;;;;;6142735;23;20001;-58
2022/01/28 02:25:48;;;;;;;14.95;2.75;;;8.20;66.60;;;;;;6143392;23;19997;-59
2022/01/28 02:28:19;;;;;;;19.52;3.30;;;8.20;66.40;;;;;;6143455;23;20002;-54
2022/01/28 02:30:45;;;;;;;12.88;2.55;;;8.20;66.20;;;;;;6143107;23;20021;-58
2022/01/28 02:33:20;;;;;;;17.75;3.17;;;8.20;66.00;;;;;;6143861;23;20002;-58
2022/01/28 02:35:48;;;;;;;25.30;3.60;;;8.20;65.80;;;;;;6145128;23;20044;-54
2022/01/28 02:38:17;;;;;;;23.20;3.33;;;8.20;65.40;;;;;;6142294;23;20017;-54
2022/01/28 02:40:52;;;;;;;20.77;3.33;;;8.20;65.00;;;;;;6144195;23;20337;-56
2022/01/28 02:45:46;;;;;;;25.35;3.75;;;8.10;64.90;;;;;;6152645;23;20032;-57
2022/01/28 02:48:22;;;;;;;26.88;4.38;;;8.10;64.90;;;;;;6142273;23;20030;-56
2022/01/28 02:53:54;;;;;;;21.55;4.25;;;8.00;64.80;;;;;;6145481;23;20029;-57
2022/01/28 02:56:35;;;;;;;23.75;3.30;;;8.00;64.80;;;;;;6141956;23;20016;-56
2022/01/28 02:59:02;;;;;;;22.48;3.83;;;7.90;64.80;;;;;;6143454;23;19998;-58
2022/01/28 03:01:28;;;;;;;25.42;4.30;;;7.90;64.80;;;;;;6144561;23;20020;-56
2022/01/28 03:03:56;;;;;;;21.90;3.47;;;7.80;64.70;;;;;;6144315;23;20331;-56
2022/01/28 03:06:22;;;;;;;17.00;2.88;;;7.80;64.80;;;;;;6143969;23;20009;-55
2022/01/28 03:08:56;;;;;;;24.08;3.38;;;7.80;64.90;;;;;;6143982;23;20001;-58
2022/01/28 03:16:32;;;;;;;16.55;2.67;;;7.70;64.80;;;;;;6154157;23;20010;-55
2022/01/28 03:19:15;;;;;;;17.92;2.63;;;7.70;64.60;;;;;;6145563;23;20006;-57
2022/01/28 03:21:44;;;;;;;23.08;3.05;;;7.70;64.60;;;;;;6143086;23;20005;-56
2022/01/28 03:24:12;;;;;;;17.67;2.63;;;7.60;64.70;;;;;;6143788;23;20012;-55
2022/01/28 03:26:39;;;;;;;24.55;3.33;;;7.60;64.90;;;;;;6144904;23;20009;-57
2022/01/28 03:29:06;;;;;;;16.10;2.90;;;7.50;64.80;;;;;;6142890;23;20016;-54
2022/01/28 03:31:32;;;;;;;29.63;2.90;;;7.50;64.90;;;;;;6143984;23;20005;-56
2022/01/28 03:33:58;;;;;;;16.08;3.22;;;7.50;64.90;;;;;;6142671;23;20540;-55
2022/01/28 03:36:25;;;;;;;25.98;3.20;;;7.50;64.90;;;;;;6144061;23;20013;-57
2022/01/28 03:38:51;;;;;;;13.50;2.40;;;7.50;64.80;;;;;;6144088;23;20503;-58
2022/01/28 03:41:17;;;;;;;18.08;3.13;;;7.40;64.70;;;;;;6145277;23;19998;-56
2022/01/28 03:43:47;;;;;;;23.85;2.80;;;7.40;64.60;;;;;;6140556;23;20386;-58
2022/01/28 03:46:15;;;;;;;21.35;2.83;;;7.40;64.70;;;;;;6143707;23;20004;-56
2022/01/28 03:48:42;;;;;;;20.13;2.95;;;7.40;64.80;;;;;;6144618;23;20006;-55
2022/01/28 03:51:08;;;;;;;19.20;2.90;;;7.40;64.80;;;;;;6141842;23;20288;-55
2022/01/28 03:53:34;;;;;;;21.27;2.78;;;7.40;64.80;;;;;;6143234;23;20009;-56
2022/01/28 03:56:01;;;;;;;21.23;3.00;;;7.40;64.90;;;;;;6144631;23;20009;-54
2022/01/28 03:58:27;;;;;;;22.25;2.67;;;7.30;64.90;;;;;;6144872;23;20422;-54
2022/01/28 04:00:55;;;;;;;20.33;2.45;;;7.30;65.00;;;;;;6146095;23;20515;-56
2022/01/28 04:13:50;;;;;;;19.13;2.72;;;7.20;65.30;;;;;;6152576;23;20010;-55
2022/01/28 04:18:42;;;;;;;20.90;3.13;;;7.20;65.50;;;;;;6146358;23;20009;-55
2022/01/28 04:21:08;;;;;;;18.73;2.50;;;7.10;65.50;;;;;;6146632;23;20002;-55
2022/01/28 04:23:34;;;;;;;12.20;2.60;;;7.10;65.60;;;;;;6144018;23;20204;-57
2022/01/28 04:26:00;;;;;;;20.83;2.88;;;7.10;65.60;;;;;;6146615;23;20001;-58
2022/01/28 04:28:27;;;;;;;19.02;3.05;;;7.10;65.60;;;;;;6145383;23;20010;-56
2022/01/28 04:30:53;;;;;;;20.63;3.03;;;7.10;65.60;;;;;;6144590;23;20032;-56
2022/01/28 04:33:19;;;;;;;27.85;3.70;;;7.00;65.60;;;;;;6145637;23;20005;-59
2022/01/28 04:35:48;;;;;;;17.27;3.00;;;7.00;65.70;;;;;;6145643;23;20438;-60
2022/01/28 04:41:37;;;;;;;24.27;3.72;;;7.00;65.80;;;;;;6144074;23;20016;-56
2022/01/28 04:43:38;;;;;;;25.05;3.60;;;7.00;65.80;;;;;;6142354;23;20006;-59
2022/01/28 04:46:10;;;;;;;;;;;7.00;66.00;;;;;;6145119;23;20442;-60
2022/01/28 04:49:00;;;;;;;20.75;3.00;;;7.00;66.00;;;;;;6146440;23;20159;-59
2022/01/28 04:54:34;;;;;;;19.65;2.80;;;6.90;65.70;;;;;;6154319;23;20025;-59
2022/01/28 04:59:39;;;;;;;19.27;3.30;;;6.90;65.90;;;;;;6154314;23;20008;-59
2022/01/28 05:05:13;;;;;;;18.90;3.00;;;6.90;66.10;;;;;;6142838;23;20028;-59
2022/01/28 05:16:47;;;;;;;22.48;3.97;;;6.80;66.00;;;;;;6153194;23;20339;-59
2022/01/28 05:26:39;;;;;;;21.70;3.70;;;6.80;66.50;;;;;;6156027;23;20010;-59
2022/01/28 05:29:05;;;;;;;23.77;2.92;;;6.80;66.40;;;;;;6142288;23;20001;-59
2022/01/28 05:31:31;;;;;;;19.35;3.08;;;6.80;66.50;;;;;;6144648;23;19998;-59
2022/01/28 05:33:58;;;;;;;22.08;2.95;;;6.80;66.60;;;;;;6144772;23;20008;-59
2022/01/28 05:36:24;;;;;;;19.08;3.28;;;6.90;66.60;;;;;;6143686;23;20006;-58
2022/01/28 05:38:50;;;;;;;17.38;3.00;;;6.90;66.60;;;;;;6144124;23;20010;-59
2022/01/28 05:41:17;;;;;;;21.58;3.25;;;6.90;66.60;;;;;;6145958;23;20001;-58
2022/01/28 05:43:43;;;;;;;25.42;3.75;;;6.90;66.60;;;;;;6143442;23;20005;-56
2022/01/28 05:46:09;;;;;;;16.75;3.25;;;6.90;66.60;;;;;;6118983;23;20005;-56
2022/01/28 05:48:35;;;;;;;22.35;3.53;;;7.00;66.50;;;;;;6145857;23;20009;-57
2022/01/28 05:51:01;;;;;;;21.25;3.72;;;7.00;66.40;;;;;;6142205;23;20017;-55
2022/01/28 05:53:28;;;;;;;26.58;4.15;;;7.00;66.20;;;;;;6143125;23;20065;-56
2022/01/28 05:55:54;;;;;;;21.48;3.17;;;7.10;66.20;;;;;;6145650;23;20013;-54
2022/01/28 05:58:20;;;;;;;20.63;3.28;;;7.10;66.30;;;;;;6142975;23;20020;-56
2022/01/28 06:00:46;;;;;;;22.25;3.22;;;7.10;66.30;;;;;;6145483;23;20006;-56
2022/01/28 06:03:12;;;;;;;26.98;3.20;;;7.10;66.20;;;;;;6140900;23;20211;-54
2022/01/28 06:05:39;;;;;;;26.35;3.22;;;7.10;66.10;;;;;;6144308;23;20016;-58
2022/01/28 06:08:05;;;;;;;16.75;2.85;;;7.10;66.00;;;;;;6145755;23;20322;-54
2022/01/28 06:10:31;;;;;;;16.27;3.38;;;7.20;66.00;;;;;;6144718;23;20008;-56
2022/01/28 06:12:57;;;;;;;20.55;2.25;;;7.20;66.00;;;;;;6143607;23;20013;-58
2022/01/28 06:15:24;;;;;;;21.05;3.13;;;7.20;66.10;;;;;;6140790;23;20036;-54
2022/01/28 06:17:50;;;;;;;18.00;2.83;;;7.20;66.90;;;;;;6139422;23;20168;-56
2022/01/28 06:20:19;;;;;;;23.38;3.15;;;7.20;66.20;;;;;;6145745;23;20001;-56
2022/01/28 06:22:46;;;;;;;22.17;2.80;;;7.20;66.30;;;;;;6144829;23;20002;-57
2022/01/28 06:25:15;;;;;;;16.48;2.78;;;7.20;66.20;;;;;;6143793;23;20005;-57
2022/01/28 06:27:43;;;;;;;13.13;2.97;;;7.20;66.10;;;;;;6145565;23;19998;-57
2022/01/28 06:30:10;;;;;;;19.48;3.22;;;7.30;66.00;;;;;;6141490;23;20209;-57
2022/01/28 06:32:36;;;;;;;18.83;2.97;;;7.20;65.70;;;;;;6140109;23;20484;-59
2022/01/28 06:35:08;;;;;;;17.88;3.40;;;7.20;65.70;;;;;;6145196;23;20300;-58
2022/01/28 06:37:36;;;;;;;16.98;3.15;;;7.20;65.70;;;;;;6153938;23;20490;-58
2022/01/28 06:40:04;;;;;;;20.85;3.30;;;7.20;65.70;;;;;;6142733;23;20012;-58
2022/01/28 06:42:30;;;;;;;19.23;3.58;;;7.20;65.80;;;;;;6141347;23;20327;-59
2022/01/28 06:44:56;;;;;;;20.65;3.13;;;7.10;65.70;;;;;;6141634;23;20009;-57
2022/01/28 06:47:23;;;;;;;22.95;4.25;;;7.10;65.80;;;;;;6142908;23;20009;-58
2022/01/28 06:49:49;;;;;;;25.60;4.30;;;7.10;66.30;;;;;;6116587;23;20017;-58
2022/01/28 06:52:15;;;;;;;23.27;3.40;;;7.10;65.90;;;;;;6173646;23;20036;-57
2022/01/28 06:54:42;;;;;;;10.95;3.42;;;7.00;65.90;;;;;;6139484;23;20028;-59
2022/01/28 06:57:08;;;;;;;18.85;2.92;;;7.00;65.90;;;;;;6143744;23;19998;-56
2022/01/28 06:59:34;;;;;;;18.05;3.60;;;6.90;65.90;;;;;;6140393;23;20418;-59
2022/01/28 07:02:00;;;;;;;22.42;3.47;;;6.90;66.10;;;;;;6138599;23;20005;-59
2022/01/28 07:04:26;;;;;;;20.25;3.42;;;6.90;66.40;;;;;;6141253;23;20010;-57
2022/01/28 07:06:53;;;;;;;23.60;4.07;;;6.90;66.50;;;;;;6143935;23;20005;-57
2022/01/28 07:09:19;;;;;;;20.92;3.92;;;6.90;66.60;;;;;;6143521;23;20012;-59
2022/01/28 07:11:46;;;;;;;28.55;3.80;;;6.90;66.90;;;;;;6143021;23;20013;-56
2022/01/28 07:14:12;;;;;;;16.10;3.47;;;6.90;66.90;;;;;;6140367;23;20418;-59
2022/01/28 07:16:38;;;;;;;21.50;4.38;;;6.90;66.90;;;;;;6136385;23;20013;-57
2022/01/28 07:19:04;;;;;;;23.77;4.47;;;6.90;66.70;;;;;;6140251;23;20008;-59
2022/01/28 07:21:31;;;;;;;21.73;3.92;;;6.90;66.60;;;;;;6138795;23;20001;-58
2022/01/28 07:23:57;;;;;;;23.33;4.32;;;6.90;66.60;;;;;;6138368;23;20013;-56
2022/01/28 07:26:23;;;;;;;29.55;4.30;;;6.80;66.60;;;;;;6145598;23;20005;-59
2022/01/28 07:28:50;;;;;;;23.02;4.50;;;6.80;66.70;;;;;;6144213;23;20005;-57
2022/01/28 07:31:18;;;;;;;22.75;5.00;;;6.80;66.70;;;;;;6145538;23;20264;-59
2022/01/28 07:33:45;;;;;;;20.27;3.97;;;6.80;66.80;;;;;;6143378;23;20005;-57
2022/01/28 07:36:12;;;;;;;20.40;4.32;;;6.70;66.90;;;;;;6144694;23;20002;-58
2022/01/28 07:38:38;;;;;;;22.27;4.07;;;6.70;67.20;;;;;;6146443;23;20485;-56
2022/01/28 07:41:05;;;;;;;19.50;4.72;;;6.60;67.40;;;;;;6146238;23;19998;-59
2022/01/28 07:43:34;;;;;;;21.45;4.70;;;6.70;67.60;;;;;;6143328;23;20006;-60
2022/01/28 07:46:00;;;;;;;20.27;4.40;;;6.70;67.70;;;;;;6142425;23;20001;-59
2022/01/28 07:48:26;;;;;;;20.58;4.40;;;6.70;67.70;;;;;;6146908;23;20427;-58
2022/01/28 07:50:53;;;;;;;31.08;5.00;;;6.70;67.80;;;;;;6145927;23;20320;-60
2022/01/28 07:53:19;;;;;;;28.08;5.07;;;6.70;67.60;;;;;;6142452;23;20005;-59
2022/01/28 07:55:45;;;;;;;20.38;3.92;;;6.80;67.60;;;;;;6136826;23;20006;-59
2022/01/28 07:58:11;;;;;;;26.75;4.32;;;6.80;67.50;;;;;;6133886;23;20005;-57
2022/01/28 08:00:39;;;;;;;23.98;4.50;;;6.80;67.40;;;;;;6143720;23;19998;-58
2022/01/28 08:03:05;;;;;;;26.65;4.60;;;6.80;67.40;;;;;;6145257;23;20009;-57
2022/01/28 08:05:31;;;;;;;25.88;5.63;;;6.80;67.50;;;;;;6142217;23;19998;-56
2022/01/28 08:07:59;;;;;;;26.77;5.57;;;6.70;67.50;;;;;;6130859;23;20001;-59
2022/01/28 08:10:25;;;;;;;25.95;4.97;;;6.80;67.60;;;;;;6130749;23;20016;-58
2022/01/28 08:12:53;;;;;;;29.88;5.15;;;6.70;67.60;;;;;;6129496;23;20005;-56
2022/01/28 08:15:20;;;;;;;30.30;6.45;;;6.70;67.70;;;;;;6134013;23;20010;-58
2022/01/28 08:17:47;;;;;;;22.10;5.57;;;6.70;67.70;;;;;;6136067;23;20013;-56
2022/01/28 08:20:13;;;;;;;25.25;5.88;;;6.70;67.80;;;;;;6135271;23;20012;-56
2022/01/28 08:22:51;;;;;;;27.70;6.35;;;6.70;67.90;;;;;;6138135;23;20009;-58
2022/01/28 08:25:20;;;;;;;24.77;6.40;;;6.70;68.00;;;;;;6134083;23;20020;-58
2022/01/28 08:27:48;;;;;;;25.80;5.57;;;6.70;68.00;;;;;;6137579;23;20008;-57
2022/01/28 08:30:17;;;;;;;28.58;6.85;;;6.70;68.20;;;;;;6128597;23;20006;-59
2022/01/28 08:32:44;;;;;;;34.20;6.63;;;6.70;68.30;;;;;;6138133;23;20310;-57
2022/01/28 08:35:12;;;;;;;25.33;6.13;;;6.70;68.50;;;;;;6133019;23;20021;-59
2022/01/28 08:37:38;;;;;;;29.55;6.78;;;6.70;68.60;;;;;;6136378;23;20017;-59
2022/01/28 08:40:07;;;;;;;32.15;6.57;;;6.70;68.80;;;;;;6143856;23;20002;-55
2022/01/28 08:42:33;;;;;;;27.63;5.97;;;6.70;69.00;;;;;;6144536;23;20014;-58
2022/01/28 08:44:59;;;;;;;32.13;5.72;;;6.70;69.20;;;;;;6143787;23;20005;-57
2022/01/28 08:47:25;;;;;;;22.63;5.70;;;6.70;69.30;;;;;;6144410;23;19994;-59
2022/01/28 08:49:52;;;;;;;24.00;5.70;;;6.70;69.30;;;;;;6145370;23;20002;-58
2022/01/28 08:52:18;;;;;;;28.80;6.13;;;6.80;69.50;;;;;;6144268;23;20010;-57
2022/01/28 08:54:44;;;;;;;32.95;5.13;;;6.80;69.60;;;;;;6142506;23;20001;-59
2022/01/28 08:57:11;;;;;;;23.50;5.82;;;6.90;69.70;;;;;;6143861;23;20419;-60
2022/01/28 08:59:39;;;;;;;20.98;5.07;;;6.90;69.60;;;;;;6142623;23;20435;-59
2022/01/28 09:02:07;;;;;;;24.80;5.20;;;6.90;69.50;;;;;;6138372;23;20010;-60
2022/01/28 09:04:33;;;;;;;27.10;5.50;;;7.00;69.50;;;;;;6139440;23;20326;-60
2022/01/28 09:06:59;;;;;;;21.77;4.90;;;7.10;69.40;;;;;;6142965;23;20001;-60
2022/01/28 09:09:25;;;;;;;28.58;5.00;;;7.10;69.00;;;;;;6141283;23;20544;-58
2022/01/28 09:12:08;;;;;;;24.05;4.82;;;7.20;68.90;;;;;;6138363;23;20009;-57
2022/01/28 09:14:34;;;;;;;22.13;4.50;;;7.30;68.40;;;;;;6145199;23;19994;-57
2022/01/28 09:17:01;;;;;;;23.77;5.28;;;7.30;68.30;;;;;;6137104;23;20014;-58
2022/01/28 09:19:27;;;;;;;26.05;4.47;;;7.40;68.00;;;;;;6142082;23;20005;-57
2022/01/28 09:21:53;;;;;;;25.10;5.22;;;7.40;67.70;;;;;;6141777;23;20001;-59
2022/01/28 09:24:19;;;;;;;31.13;5.10;;;7.40;67.20;;;;;;6141600;23;20005;-57
2022/01/28 09:26:45;;;;;;;24.88;4.95;;;7.40;67.00;;;;;;6142907;23;20269;-59
2022/01/28 09:29:11;;;;;;;29.50;5.40;;;7.40;67.00;;;;;;6136160;23;20028;-59
2022/01/28 09:31:38;;;;;;;20.90;4.68;;;7.50;67.80;;;;;;6139927;23;19997;-59
2022/01/28 09:34:04;;;;;;;24.20;4.40;;;7.50;67.20;;;;;;6143614;23;20319;-59
2022/01/28 09:36:30;;;;;;;15.40;4.50;;;7.50;66.90;;;;;;6137333;23;20371;-54
2022/01/28 09:38:56;;;;;;;28.65;4.75;;;7.50;66.70;;;;;;6142022;23;20769;-60
2022/01/28 09:41:23;;;;;;;30.45;4.57;;;7.50;66.50;;;;;;6141696;23;20490;-60
2022/01/28 09:43:50;;;;;;;26.85;5.13;;;7.50;66.50;;;;;;6141968;23;20001;-60
2022/01/28 09:46:17;;;;;;;25.65;4.13;;;7.50;66.60;;;;;;6142167;23;20005;-60
2022/01/28 09:48:45;;;;;;;22.35;4.45;;;7.60;66.70;;;;;;6143372;23;20017;-60
2022/01/28 09:51:11;;;;;;;28.35;4.50;;;7.60;66.60;;;;;;6143753;23;20005;-58
2022/01/28 09:53:38;;;;;;;26.65;4.30;;;7.60;66.50;;;;;;6139003;23;20025;-60
2022/01/28 09:56:04;;;;;;;21.38;3.80;;;7.70;66.60;;;;;;6135087;23;20280;-60
2022/01/28 09:58:30;;;;;;;25.25;4.20;;;7.70;66.60;;;;;;6132137;23;20264;-60
2022/01/28 10:00:56;;;;;;;19.63;3.42;;;7.80;66.50;;;;;;6138240;23;20005;-60
2022/01/28 10:03:25;;;;;;;21.67;3.65;;;7.80;66.00;;;;;;6140888;23;20009;-60
2022/01/28 10:05:51;;;;;;;24.45;4.32;;;7.90;66.00;;;;;;6144279;23;19998;-59
2022/01/28 10:08:26;;;;;;;15.32;3.05;;;7.90;65.90;;;;;;6141654;23;20005;-60
2022/01/28 10:11:08;;;;;;;23.92;3.80;;;8.00;64.50;;;;;;6143943;23;20326;-59
2022/01/28 10:13:40;;;;;;;23.83;4.55;;;8.00;64.10;;;;;;6136553;23;20002;-60
2022/01/28 10:16:13;;;;;;;25.67;4.05;;;8.10;64.10;;;;;;6132581;23;20430;-60
2022/01/28 10:18:49;;;;;;;23.27;3.67;;;8.10;63.60;;;;;;6150138;23;20099;-59
2022/01/28 10:21:38;;;;;;;16.35;3.22;;;8.20;64.10;;;;;;6150262;23;20005;-60
2022/01/28 10:24:14;;;;;;;25.88;3.80;;;8.30;63.60;;;;;;6147921;23;19997;-60
2022/01/28 10:26:42;;;;;;;28.63;4.20;;;8.40;63.60;;;;;;6140601;23;20016;-60
2022/01/28 10:29:21;;;;;;;20.90;3.85;;;8.40;63.40;;;;;;6143169;23;20006;-60
2022/01/28 10:32:01;;;;;;;21.50;3.53;;;8.50;62.90;;;;;;6150985;23;20168;-60
2022/01/28 10:34:35;;;;;;;17.58;3.20;;;8.50;63.20;;;;;;6153563;23;20327;-59
2022/01/28 10:37:09;;;;;;;25.60;3.97;;;8.60;63.50;;;;;;6146803;23;20013;-60
2022/01/28 10:39:42;;;;;;;17.27;3.50;;;8.60;63.00;;;;;;6137290;23;20323;-60
2022/01/28 10:42:10;;;;;;;30.10;4.45;;;8.70;62.80;;;;;;6142844;23;20378;-60
2022/01/28 10:44:55;;;;;;;21.05;3.53;;;8.70;62.50;;;;;;6139030;23;20013;-58
2022/01/28 10:47:36;;;;;;;22.55;3.67;;;8.80;62.10;;;;;;6142243;23;20001;-60
2022/01/28 10:50:27;;;;;;;24.30;4.00;;;8.80;61.70;;;;;;6142895;23;20439;-59
2022/01/28 10:53:07;;;;;;;22.83;4.40;;;8.90;61.00;;;;;;6145488;23;20017;-59
2022/01/28 10:55:45;;;;;;;24.15;4.03;;;8.90;60.40;;;;;;6143612;23;20009;-60
2022/01/28 10:58:14;;;;;;;13.32;3.70;;;8.90;60.20;;;;;;6152495;23;20006;-60
2022/01/28 11:00:53;;;;;;;18.75;3.95;;;8.90;60.20;;;;;;6142361;23;20330;-59
2022/01/28 11:03:26;;;;;;;26.95;4.88;;;8.90;60.60;;;;;;6152383;23;20191;-60
2022/01/28 11:06:00;;;;;;;28.13;4.47;;;8.90;60.90;;;;;;6143324;23;20013;-59
2022/01/28 11:08:29;;;;;;;;;;;8.90;61.10;;;;;;6143210;23;20017;-60
2022/01/28 11:10:56;;;;;;;22.38;4.80;;;9.00;61.50;;;;;;6138543;23;19900;-58
2022/01/28 11:13:22;;;;;;;16.15;4.00;;;9.00;60.70;;;;;;6141650;23;19994;-60
2022/01/28 11:15:49;;;;;;;26.27;4.68;;;9.00;60.50;;;;;;6142793;23;20334;-59
2022/01/28 11:18:16;;;;;;;20.98;3.97;;;9.00;59.70;;;;;;6142352;23;19998;-60
2022/01/28 11:21:05;;;;;;;28.40;4.80;;;8.90;59.40;;;;;;6139847;23;19998;-60
2022/01/28 11:23:53;;;;;;;13.48;3.70;;;8.90;59.50;;;;;;6152452;23;20001;-60
2022/01/28 11:26:26;;;;;;;20.10;4.47;;;8.90;59.40;;;;;;6140588;23;20091;-60
2022/01/28 11:28:56;;;;;;;15.00;3.72;;;8.80;59.40;;;;;;6138801;23;20006;-60
2022/01/28 11:31:43;;;;;;;28.48;3.97;;;8.80;59.50;;;;;;6140906;23;20342;-60
2022/01/28 11:34:29;;;;;;;23.15;4.60;;;8.80;59.20;;;;;;6141980;23;20002;-60
2022/01/28 11:37:02;;;;;;;35.92;5.40;;;8.80;59.20;;;;;;6143475;23;20005;-60
2022/01/28 11:39:31;;;;;;;26.67;4.32;;;8.80;59.30;;;;;;6141276;23;20009;-60
2022/01/28 11:42:03;;;;;;;29.02;4.82;;;8.80;59.50;;;;;;6140839;23;20021;-60
2022/01/28 11:44:51;;;;;;;19.85;3.95;;;8.80;59.30;;;;;;6139972;23;20021;-60
2022/01/28 11:47:22;;;;;;;29.67;5.13;;;8.80;59.20;;;;;;6143144;23;19997;-60
2022/01/28 11:49:55;;;;;;;23.25;3.97;;;8.80;59.20;;;;;;6143636;23;20001;-60
2022/01/28 11:52:55;;;;;;;18.97;4.93;;;8.80;59.50;;;;;;6143188;23;20014;-61
2022/01/28 11:55:21;;;;;;;28.00;4.38;;;8.90;59.50;;;;;;6127120;23;20006;-59
2022/01/28 11:57:55;;;;;;;20.52;4.32;;;8.90;59.30;;;;;;6143783;23;20016;-60
2022/01/28 12:00:45;;;;;;;27.25;3.75;;;8.90;59.00;;;;;;6142583;23;20009;-60
2022/01/28 12:03:31;;;;;;;31.50;4.43;;;9.00;58.80;;;;;;6151026;23;20008;-60
2022/01/28 12:06:05;;;;;;;23.23;3.83;;;9.00;58.40;;;;;;6153879;23;20005;-61
2022/01/28 12:08:32;;;;;;;19.88;3.63;;;9.00;58.50;;;;;;6153593;23;20002;-60
2022/01/28 12:11:02;;;;;;;26.27;3.55;;;9.10;58.60;;;;;;6144213;23;20319;-61
2022/01/28 12:14:05;;;;;;;18.25;3.15;;;9.10;58.60;;;;;;6142437;23;20007;-60
2022/01/28 12:16:40;;;;;;;23.25;3.78;;;9.10;57.90;;;;;;6143198;23;20013;-60
2022/01/28 12:19:15;;;;;;;26.02;3.65;;;9.20;57.80;;;;;;6155516;23;20013;-60
2022/01/28 12:22:10;;;;;;;30.13;4.00;;;9.20;56.50;;;;;;6145656;23;20010;-60
2022/01/28 12:24:37;;;;;;;16.25;2.97;;;9.20;56.40;;;;;;6154153;23;20005;-60
2022/01/28 12:27:10;;;;;;;12.75;2.53;;;9.20;56.70;;;;;;6146130;23;20422;-61
2022/01/28 12:29:47;;;;;;;23.42;3.92;;;9.30;57.10;;;;;;6144114;23;20005;-60
2022/01/28 12:32:21;;;;;;;19.92;2.72;;;9.30;56.20;;;;;;6155190;23;19994;-60
2022/01/28 12:34:47;;;;;;;28.70;4.10;;;9.40;56.30;;;;;;6143925;23;20016;-60
2022/01/28 12:37:14;;;;;;;20.08;3.10;;;9.40;56.20;;;;;;6146211;23;19997;-60
2022/01/28 12:39:50;;;;;;;15.68;2.75;;;9.50;56.30;;;;;;6146175;23;20056;-57
2022/01/28 12:44:59;;;;;;;21.40;3.17;;;9.60;56.50;;;;;;6143958;23;20005;-56
2022/01/28 12:47:31;;;;;;;20.67;3.03;;;9.70;56.10;;;;;;6153673;23;20375;-59
2022/01/28 12:50:03;;;;;;;18.45;2.90;;;9.70;56.00;;;;;;6150925;23;20031;-57
2022/01/28 12:52:34;;;;;;;20.73;3.50;;;9.80;55.60;;;;;;6145540;23;20025;-57
2022/01/28 12:55:01;;;;;;;23.02;2.65;;;9.80;55.40;;;;;;6144876;23;20431;-60
2022/01/28 12:57:27;;;;;;;13.23;2.95;;;9.90;55.20;;;;;;6146488;23;20005;-59
2022/01/28 12:59:54;;;;;;;14.55;2.78;;;9.90;55.30;;;;;;6143237;23;20065;-57
2022/01/28 13:02:20;;;;;;;27.35;3.50;;;9.90;55.10;;;;;;6144179;23;20016;-58
2022/01/28 13:05:12;;;;;;;24.67;3.67;;;9.90;54.90;;;;;;6143981;23;19997;-58
2022/01/28 13:10:30;;;;;;;26.52;3.78;;;9.90;54.40;;;;;;6154903;23;20016;-59
2022/01/28 13:13:22;;;;;;;21.45;2.65;;;9.90;54.30;;;;;;6142205;23;19998;-59
2022/01/28 13:15:54;;;;;;;23.65;3.90;;;9.80;54.00;;;;;;6143985;23;20016;-59
2022/01/28 13:18:20;;;;;;;23.95;3.15;;;9.80;54.00;;;;;;6155215;23;20001;-60
2022/01/28 13:20:47;;;;;;;18.08;2.92;;;9.80;53.80;;;;;;6145009;23;20024;-60
2022/01/28 13:23:13;;;;;;;14.65;2.58;;;9.70;54.00;;;;;;6143640;23;19998;-57
2022/01/28 13:25:40;;;;;;;19.13;2.50;;;9.70;54.20;;;;;;6145236;23;20002;-60
2022/01/28 13:28:14;;;;;;;18.33;2.78;;;9.60;54.20;;;;;;6143384;23;20044;-60
2022/01/28 13:30:41;;;;;;;;;;;9.60;54.30;;;;;;6145476;23;20006;-56
2022/01/28 13:33:10;;;;;;;17.48;3.80;;;9.60;54.50;;;;;;6143992;23;20333;-59
2022/01/28 13:35:37;;;;;;;20.45;2.67;;;9.50;53.80;;;;;;6145428;23;20550;-60
2022/01/28 13:38:17;;;;;;;19.80;3.17;;;9.50;53.90;;;;;;6144895;23;19998;-60
2022/01/28 13:40:43;;;;;;;14.82;2.80;;;9.50;53.90;;;;;;6153364;23;20002;-58
2022/01/28 13:43:22;;;;;;;16.10;3.90;;;9.50;54.40;;;;;;6142585;23;20324;-60
2022/01/28 13:45:54;;;;;;;19.83;3.17;;;9.50;54.40;;;;;;6142998;23;20335;-60
2022/01/28 13:48:37;;;;;;;15.25;2.47;;;9.50;54.40;;;;;;6145053;23;20006;-58
2022/01/28 13:51:15;;;;;;;20.00;3.10;;;9.50;54.20;;;;;;6145301;23;20001;-60
2022/01/28 13:56:38;;;;;;;17.17;2.45;;;9.60;54.50;;;;;;6154019;23;20020;-59
2022/01/28 13:59:10;;;;;;;;;;;9.50;54.50;;;;;;6153748;23;20010;-58
2022/01/28 14:01:37;;;;;;;17.67;2.70;;;9.60;54.80;;;;;;6144961;23;19900;-60
2022/01/28 14:04:04;;;;;;;17.10;3.60;;;9.60;54.60;;;;;;6145289;23;20728;-58
2022/01/28 14:06:33;;;;;;;20.70;3.00;;;9.50;54.60;;;;;;6145593;23;20308;-59
2022/01/28 14:09:09;;;;;;;17.45;2.85;;;9.50;54.60;;;;;;6144134;23;20029;-59
2022/01/28 14:11:43;;;;;;;13.45;2.70;;;9.50;54.70;;;;;;6153808;23;20013;-58
2022/01/28 14:14:25;;;;;;;19.85;3.00;;;9.50;54.80;;;;;;6141259;23;20231;-60
2022/01/28 14:17:02;;;;;;;14.45;2.42;;;9.50;54.80;;;;;;6144701;23;20009;-59
2022/01/28 14:19:31;;;;;;;19.00;2.70;;;9.50;54.80;;;;;;6143011;23;20009;-60
2022/01/28 14:21:59;;;;;;;12.82;2.08;;;9.50;54.40;;;;;;6143895;23;20354;-60
2022/01/28 14:24:29;;;;;;;11.85;2.50;;;9.50;54.20;;;;;;6142240;23;20014;-60
2022/01/28 14:27:10;;;;;;;11.18;2.25;;;9.60;54.30;;;;;;6140911;23;20006;-60
2022/01/28 14:32:11;;;;;;;;;;;9.60;54.00;;;;;;6151922;23;20292;-60
2022/01/28 14:34:39;;;;;;;11.55;2.08;;;9.70;54.20;;;;;;6139324;23;20659;-60